Worland, Wyoming
Current Conditions -  °F | °C
As of 10:53 AM on Wednesday 28 Jan 2015 (Local Time) from KWRL Reporting Station
Overcast Overcast  
Wind Chill: 27°   Ceiling: 5500
Heat Index: 35°   Visibility: 10mi
Dew Point: 33°   Wind: 12mph
Humidity: 92%   Direction: 220°SW
Pressure: 30.14"   Gusts: NA
Location:  44.02°N, 107.95°W
Report Text: KWRL 281753Z AUTO 22010KT 10SM BKN055 OVC070 02/01 A3014 RMK AO2 RAE33 SLP239 P0002 60011 T00170006 10017 20000 51019
Loading
Personal Weather Stations






























Interactive Weather Map New forecast layout! Learn more

10-Day Weather Forecast

Advertisements
Track Severe Weather on mobile